Albee, South Dakota
Current Conditions -  °F | °C
As of 1:54 AM on Saturday 01 Nov 2014 (Local Time) from KDXX Reporting Station
Clear Clear  
Wind Chill: 18°   Ceiling: Unl
Heat Index: 27°   Visibility: 10mi
Dew Point: 19°   Wind: 8mph
Humidity: 74%   Direction: 150°SSE
Pressure: 30.4"   Gusts: NA
Location:  45.0205°N, 96.5453°W
Report Text: KDXX 010654Z AUTO 15007KT 10SM CLR M03/M07 A3040 RMK AO2
Loading
Personal Weather Stations






























Interactive Weather Map
Tropical Storm Tracking
New forecast layout! Learn more

10-Day Weather Forecast

Advertisements
Track Severe Weather on mobile